Aeroporto :
LOGIN :

Iscrizione | Disclaimer

   EN    FR    IT 

 










Sommario :    VFR   VFR Marginale   IFR   IFR Intensivo   IFR Molto Intensivo
Visibilità : 
Base nubi : 
>= 8 km
>= 3000ft
5 / 8 km
1000 / 3000 ft
1500m / 5 km
500 / 1000 ft
800 / 1500m
200 / 500 ft
< 800m
< 200 ft
Simboli :   Temporali  Nebbia  Neve Forte  Precipitazioni Forti  Vento > 20 kt
SIGMETs :   Varie  Temporali  Ghiacco  Turbolenza  Onda orograficha  Ceneri Vulcaniche






- Altitudine del aeroporto : 56 ft
- Codice IATA : BZR


LFMU - Beziers / Vias

ULTIMO METAR :
  • 180330Z AUTO 32006KT 260V340 CAVOK 08/03 Q1032 NOSIG

METARs OBSOLETI :
  • 180300Z AUTO 34008KT CAVOK 09/03 Q1032 NOSIG
  • 180230Z AUTO 33011KT CAVOK 09/03 Q1031
  • 180200Z AUTO 31008KT 9999 FEW047 BKN054 BKN064 08/05 Q1032
  • 180130Z AUTO 30007KT CAVOK 08/05 Q1031
  • 180100Z AUTO 31006KT CAVOK 09/06 Q1031

TAF TAF LFMU
Valido dal 18 a 03 ore il 19 a 03 ore UTC


180200Z 1803/1903 31012KT CAVOK
ATIS : +33 4 67 90 88 88



MetMap, La meteo Aeronautica in un colpo d'occhio ! - Copyright ORBIFLY Dicembre 2007 - Disclaimer

ORBIFLY MET'MAP TEAM :

Programmazione e sviluppo : Alexandra Zaïnal
Concezione : Baudouin d'Aumeries
Aiuto per la programmazione : Marc-Olivier Méhu
Supporto tecnico e logistico : Manuel Goepfert
Aiuto per la traduzione : Arnaldo La Scala

Contatto : metmap@orbifly.com




FONTI E CREDITI :

   NOAA